Time;durP1;ratioP1;P1;durP2;ratioP2;P2;SDS_P1;SDS_P2;PMS_P1;PMS_P2;Temp;Humidity;BMP_temperature;BMP_pressure;BME280_temperature;BME280_humidity;BME280_pressure;Samples;Min_cycle;Max_cycle;Signal;HPM_P1;HPM_P2
2021/09/15 00:02:21;;;;;;;4.37;3.80;;;24.00;99.90;;;;;;5074451;28;20172;-77
2021/09/15 00:04:47;;;;;;;5.67;5.17;;;24.00;99.90;;;;;;5087989;28;20180;-78
2021/09/15 00:07:13;;;;;;;5.00;4.60;;;24.00;99.90;;;;;;5090755;28;20184;-77
2021/09/15 00:09:38;;;;;;;5.30;4.80;;;23.90;99.90;;;;;;5076049;28;20320;-77
2021/09/15 00:12:04;;;;;;;5.17;4.77;;;23.90;99.90;;;;;;5094849;28;20280;-78
2021/09/15 00:14:30;;;;;;;5.07;4.50;;;23.90;99.90;;;;;;5094354;28;20179;-78
2021/09/15 00:16:55;;;;;;;5.50;5.00;;;23.80;99.90;;;;;;5095108;28;20190;-78
2021/09/15 00:19:21;;;;;;;7.70;5.30;;;23.80;99.90;;;;;;5076362;28;20545;-78
2021/09/15 00:21:47;;;;;;;5.07;4.67;;;23.70;99.90;;;;;;5060178;28;20179;-78
2021/09/15 00:24:13;;;;;;;6.30;5.70;;;23.70;99.90;;;;;;5076743;28;20167;-77
2021/09/15 00:26:38;;;;;;;6.57;5.77;;;23.70;99.90;;;;;;5094525;28;20246;-77
2021/09/15 00:29:04;;;;;;;5.27;4.83;;;23.60;99.90;;;;;;5076160;28;20529;-78
2021/09/15 00:31:30;;;;;;;5.03;4.50;;;23.70;99.90;;;;;;5094674;28;20671;-79
2021/09/15 00:33:55;;;;;;;6.10;5.50;;;23.60;99.90;;;;;;5058433;28;20524;-78
2021/09/15 00:36:21;;;;;;;4.70;4.30;;;23.60;99.90;;;;;;5076316;28;20190;-76
2021/09/15 00:38:47;;;;;;;5.90;5.40;;;23.60;99.90;;;;;;5094058;28;20523;-78
2021/09/15 00:41:13;;;;;;;5.47;4.97;;;23.60;99.90;;;;;;5094899;28;20183;-78
2021/09/15 00:44:08;;;;;;;5.73;5.00;;;23.60;99.90;;;;;;5079766;28;20570;-79
2021/09/15 00:46:36;;;;;;;6.07;5.17;;;23.50;99.90;;;;;;5094281;28;20187;-79
2021/09/15 00:49:03;;;;;;;5.27;4.87;;;23.50;99.90;;;;;;5075858;28;20597;-78
2021/09/15 00:51:33;;;;;;;5.80;5.30;;;23.50;99.90;;;;;;5094269;28;20609;-78
2021/09/15 00:53:59;;;;;;;6.43;5.93;;;23.50;99.90;;;;;;5075889;28;20562;-78
2021/09/15 00:56:26;;;;;;;5.70;5.10;;;23.40;99.90;;;;;;5094053;28;21155;-78
2021/09/15 00:58:54;;;;;;;5.93;5.43;;;23.40;99.90;;;;;;5075626;28;20627;-78
2021/09/15 01:01:19;;;;;;;5.97;5.47;;;23.40;99.90;;;;;;5076076;28;20961;-78
2021/09/15 01:03:46;;;;;;;6.57;5.90;;;23.30;99.90;;;;;;5076190;28;20168;-78
2021/09/15 01:06:12;;;;;;;5.70;5.20;;;23.30;99.90;;;;;;5075672;28;20650;-78
2021/09/15 01:08:42;;;;;;;6.30;5.70;;;23.30;99.90;;;;;;5075809;28;20572;-78
2021/09/15 01:11:15;;;;;;;5.70;5.30;;;23.30;99.90;;;;;;5075851;28;20609;-78
2021/09/15 01:13:52;;;;;;;5.70;5.20;;;23.30;99.90;;;;;;5075815;28;20592;-78
2021/09/15 01:16:54;;;;;;;5.63;5.17;;;23.30;99.90;;;;;;5093964;28;20589;-79
2021/09/15 01:19:38;;;;;;;20.40;6.93;;;23.20;99.90;;;;;;5094981;28;20573;-78
2021/09/15 01:22:33;;;;;;;5.10;4.60;;;23.30;99.90;;;;;;5083700;28;20605;-78
2021/09/15 01:25:38;;;;;;;5.03;4.57;;;23.30;99.90;;;;;;5030796;28;20604;-78
2021/09/15 01:28:23;;;;;;;5.90;5.40;;;23.30;99.90;;;;;;5014244;28;20630;-78
2021/09/15 01:30:56;;;;;;;4.60;4.27;;;23.30;99.90;;;;;;5053659;28;20604;-78
2021/09/15 01:33:24;;;;;;;5.87;5.37;;;23.30;99.90;;;;;;5075424;28;20570;-79
2021/09/15 01:35:49;;;;;;;5.57;5.10;;;23.30;99.90;;;;;;5075069;28;20609;-79
2021/09/15 01:38:16;;;;;;;9.23;4.90;;;23.30;99.90;;;;;;5075090;28;20174;-79
2021/09/15 01:40:43;;;;;;;5.43;5.03;;;23.30;99.90;;;;;;5075180;28;20168;-79
2021/09/15 01:43:09;;;;;;;5.80;5.30;;;23.30;99.90;;;;;;5075318;28;20634;-79
2021/09/15 01:45:36;;;;;;;6.10;5.60;;;23.30;99.90;;;;;;5092956;28;20574;-78
2021/09/15 01:48:07;;;;;;;5.67;5.10;;;23.30;99.90;;;;;;5074881;28;20171;-78
2021/09/15 01:50:34;;;;;;;5.87;5.23;;;23.30;99.90;;;;;;5075312;28;20580;-78
2021/09/15 01:53:00;;;;;;;4.93;4.53;;;23.30;99.90;;;;;;5074887;28;20621;-78
2021/09/15 01:55:30;;;;;;;5.50;5.10;;;23.20;99.90;;;;;;5075288;28;20635;-78
2021/09/15 01:58:14;;;;;;;4.77;4.47;;;23.20;99.90;;;;;;5095696;28;20573;-79
2021/09/15 02:00:58;;;;;;;7.50;6.80;;;23.20;99.90;;;;;;5091626;28;20589;-78
2021/09/15 02:03:50;;;;;;;5.73;5.13;;;23.20;99.90;;;;;;5085234;28;20581;-79
2021/09/15 02:06:42;;;;;;;10.23;5.70;;;23.10;99.90;;;;;;5090573;28;21180;-79
2021/09/15 02:09:23;;;;;;;5.90;5.40;;;23.10;99.90;;;;;;5078596;28;20628;-79
2021/09/15 02:11:58;;;;;;;5.60;5.20;;;23.10;99.90;;;;;;5073133;28;20730;-78
2021/09/15 02:14:24;;;;;;;5.60;4.80;;;23.10;99.90;;;;;;5080761;28;20721;-78
2021/09/15 02:16:50;;;;;;;6.23;5.73;;;23.20;99.90;;;;;;5074552;28;20610;-78
2021/09/15 02:19:18;;;;;;;5.63;5.23;;;23.20;99.90;;;;;;5074048;28;20187;-79
2021/09/15 02:22:02;;;;;;;7.10;4.90;;;23.10;99.90;;;;;;5092676;28;20569;-79
2021/09/15 02:24:53;;;;;;;5.60;5.20;;;23.10;99.90;;;;;;5074342;28;20680;-79
2021/09/15 02:27:48;;;;;;;6.57;4.87;;;23.10;99.90;;;;;;5071859;28;20614;-78
2021/09/15 02:30:19;;;;;;;6.00;5.50;;;23.10;99.90;;;;;;5083460;28;20581;-78
2021/09/15 02:32:55;;;;;;;5.80;5.40;;;23.00;99.90;;;;;;5073050;28;20765;-79
2021/09/15 02:35:39;;;;;;;6.27;5.67;;;23.00;99.90;;;;;;5072306;28;20574;-78
2021/09/15 02:38:23;;;;;;;7.03;6.43;;;22.90;99.90;;;;;;5107134;28;20678;-79
2021/09/15 02:41:10;;;;;;;5.70;5.20;;;22.90;99.90;;;;;;5085755;28;20657;-78
2021/09/15 02:43:45;;;;;;;6.40;5.80;;;22.90;99.90;;;;;;5079121;28;20593;-79
2021/09/15 02:46:35;;;;;;;5.40;5.00;;;22.90;99.90;;;;;;5094748;28;20612;-79
2021/09/15 02:49:14;;;;;;;5.93;5.43;;;22.90;99.90;;;;;;5083978;28;20590;-78
2021/09/15 02:52:03;;;;;;;7.30;6.60;;;22.80;99.90;;;;;;5084081;28;20645;-79
2021/09/15 02:54:40;;;;;;;9.10;7.00;;;22.70;99.90;;;;;;5074501;28;20572;-78
2021/09/15 02:57:15;;;;;;;7.77;6.93;;;22.70;99.90;;;;;;5073268;28;21066;-78
2021/09/15 02:59:45;;;;;;;7.80;7.20;;;22.70;99.90;;;;;;5074477;28;20609;-79
2021/09/15 03:02:34;;;;;;;6.47;5.97;;;22.60;99.90;;;;;;5084044;28;20922;-79
2021/09/15 03:05:17;;;;;;;6.77;6.20;;;22.60;99.90;;;;;;5074176;28;20545;-78
2021/09/15 03:08:06;;;;;;;6.30;5.70;;;22.50;99.90;;;;;;5074016;28;20597;-78
2021/09/15 03:10:32;;;;;;;7.63;6.93;;;22.50;99.90;;;;;;5076569;28;20584;-78
2021/09/15 03:12:57;;;;;;;6.70;6.10;;;22.50;99.90;;;;;;5094758;28;20213;-77
2021/09/15 03:15:23;;;;;;;6.83;6.20;;;22.50;99.90;;;;;;5073552;28;20236;-78
2021/09/15 03:17:49;;;;;;;6.90;6.37;;;22.40;99.90;;;;;;5073388;28;20515;-78
2021/09/15 03:20:15;;;;;;;6.50;6.00;;;22.40;99.90;;;;;;5091534;28;20612;-78
2021/09/15 03:22:41;;;;;;;6.53;6.03;;;22.40;99.90;;;;;;5073936;28;20569;-78
2021/09/15 03:25:08;;;;;;;6.83;6.23;;;22.40;99.90;;;;;;5091795;28;20626;-79
2021/09/15 03:27:35;;;;;;;7.00;6.40;;;22.30;99.90;;;;;;5073110;28;20624;-77
2021/09/15 03:30:01;;;;;;;6.13;5.63;;;22.40;99.90;;;;;;5073678;28;20669;-77
2021/09/15 03:32:29;;;;;;;6.13;5.67;;;22.40;99.90;;;;;;5073204;28;20664;-78
2021/09/15 03:34:54;;;;;;;6.70;6.20;;;22.40;99.90;;;;;;5072940;28;20605;-78
2021/09/15 03:37:20;;;;;;;7.07;6.37;;;22.30;99.90;;;;;;5072833;28;20192;-78
2021/09/15 03:39:46;;;;;;;6.93;6.43;;;22.30;99.90;;;;;;5073755;28;20717;-78
2021/09/15 03:42:11;;;;;;;7.90;7.20;;;22.30;99.90;;;;;;5056679;28;20217;-77
2021/09/15 03:44:37;;;;;;;7.40;6.60;;;22.30;99.90;;;;;;5074055;28;20241;-77
2021/09/15 03:47:03;;;;;;;6.90;6.30;;;22.30;99.90;;;;;;5074109;28;20200;-77
2021/09/15 03:49:29;;;;;;;7.43;6.20;;;22.30;99.90;;;;;;5083946;28;20186;-78
2021/09/15 03:51:56;;;;;;;7.90;7.10;;;22.30;99.90;;;;;;5039296;28;20995;-78
2021/09/15 03:54:22;;;;;;;7.67;6.73;;;22.30;99.90;;;;;;5073647;28;20578;-79
2021/09/15 03:56:48;;;;;;;7.87;7.07;;;22.30;99.90;;;;;;5056388;28;21175;-79
2021/09/15 03:59:14;;;;;;;7.20;6.53;;;22.30;99.90;;;;;;5060727;28;20186;-79
2021/09/15 04:01:41;;;;;;;7.17;6.57;;;22.20;99.90;;;;;;5072235;28;20586;-79
2021/09/15 04:04:08;;;;;;;6.87;6.33;;;22.20;99.90;;;;;;5073301;28;20565;-79
2021/09/15 04:06:34;;;;;;;7.13;6.50;;;22.10;99.90;;;;;;5073403;28;20593;-79
2021/09/15 04:09:00;;;;;;;7.10;6.50;;;22.10;99.90;;;;;;5076318;28;20573;-79
2021/09/15 04:11:27;;;;;;;7.10;6.50;;;22.00;99.90;;;;;;5076832;28;20732;-79
2021/09/15 04:13:52;;;;;;;6.50;5.90;;;22.00;99.90;;;;;;5076992;28;20608;-78
2021/09/15 04:16:19;;;;;;;7.40;6.40;;;22.00;99.90;;;;;;5095049;28;20184;-78
2021/09/15 04:18:44;;;;;;;7.27;6.67;;;21.90;99.90;;;;;;5076501;28;20631;-79
2021/09/15 04:21:11;;;;;;;6.80;6.20;;;21.90;99.90;;;;;;5095191;28;20172;-80
2021/09/15 04:31:40;;;;;;;7.00;6.40;;;21.90;99.90;;;;;;5076994;28;20613;-79
2021/09/15 04:34:06;;;;;;;7.43;6.50;;;21.90;99.90;;;;;;5077139;28;20574;-79
2021/09/15 04:36:48;;;;;;;7.50;6.80;;;21.80;99.90;;;;;;5077173;28;20631;-79
2021/09/15 04:39:14;;;;;;;7.33;6.70;;;21.80;99.90;;;;;;5094551;28;20566;-79
2021/09/15 04:41:40;;;;;;;7.33;6.80;;;21.80;99.90;;;;;;5076529;28;20622;-79
2021/09/15 04:44:06;;;;;;;7.30;6.70;;;21.80;99.90;;;;;;5076399;28;20176;-80
2021/09/15 04:46:32;;;;;;;8.33;7.67;;;21.80;99.90;;;;;;5076424;28;20651;-79
2021/09/15 04:48:57;;;;;;;8.37;7.60;;;21.80;99.90;;;;;;5095218;28;20547;-78
2021/09/15 04:51:23;;;;;;;8.13;7.23;;;21.80;99.90;;;;;;5059778;28;20200;-79
2021/09/15 04:53:50;;;;;;;7.17;6.47;;;21.80;99.90;;;;;;5076679;28;20623;-79
2021/09/15 04:56:16;;;;;;;8.00;7.30;;;21.70;99.90;;;;;;5078197;28;20609;-79
2021/09/15 04:58:42;;;;;;;7.80;7.20;;;21.70;99.90;;;;;;5060960;28;20171;-79
2021/09/15 05:01:08;;;;;;;6.87;6.27;;;21.70;99.90;;;;;;5083359;28;20194;-79
2021/09/15 05:03:33;;;;;;;8.60;6.97;;;21.60;99.90;;;;;;5080014;28;20648;-79
2021/09/15 05:06:00;;;;;;;8.43;7.73;;;21.60;99.90;;;;;;5076500;28;20658;-79
2021/09/15 05:08:26;;;;;;;6.77;6.23;;;21.60;99.90;;;;;;5060063;28;21113;-79
2021/09/15 05:10:53;;;;;;;9.50;8.70;;;21.60;99.90;;;;;;5077238;28;21184;-79
2021/09/15 05:13:22;;;;;;;8.30;7.50;;;21.60;99.90;;;;;;5060030;28;20724;-79
2021/09/15 05:15:49;;;;;;;9.53;6.87;;;21.60;99.90;;;;;;5076349;28;20962;-81
2021/09/15 05:18:15;;;;;;;6.60;6.10;;;21.60;99.90;;;;;;5078638;28;20570;-79
2021/09/15 05:20:41;;;;;;;6.97;6.40;;;21.60;99.90;;;;;;5075117;28;20581;-79
2021/09/15 05:23:08;;;;;;;8.67;7.87;;;21.70;99.90;;;;;;5094108;28;20577;-78
2021/09/15 05:25:34;;;;;;;7.77;6.90;;;21.70;99.90;;;;;;5075736;28;20572;-77
2021/09/15 05:28:01;;;;;;;8.47;7.60;;;21.70;99.90;;;;;;5077491;22;20686;-76
2021/09/15 05:30:30;;;;;;;8.17;7.47;;;21.70;99.90;;;;;;5048407;28;20963;-76
2021/09/15 05:32:59;;;;;;;7.90;7.10;;;21.70;99.90;;;;;;5035066;28;20658;-75
2021/09/15 05:35:26;;;;;;;7.47;6.77;;;21.70;99.90;;;;;;5051698;28;21023;-75
2021/09/15 05:37:56;;;;;;;7.60;7.00;;;21.70;99.90;;;;;;5034631;28;20637;-76
2021/09/15 05:40:22;;;;;;;6.33;5.83;;;21.70;99.90;;;;;;5058487;28;20632;-76
2021/09/15 05:42:48;;;;;;;7.57;6.97;;;21.70;99.90;;;;;;5042138;28;20572;-75
2021/09/15 05:45:17;;;;;;;7.27;6.67;;;21.80;99.90;;;;;;5038076;28;21209;-76
2021/09/15 05:47:45;;;;;;;8.00;7.20;;;21.80;99.90;;;;;;5051583;28;20661;-76
2021/09/15 05:50:12;;;;;;;7.13;6.53;;;21.80;99.90;;;;;;5055881;28;20567;-76
2021/09/15 05:52:43;;;;;;;7.23;6.63;;;21.80;99.90;;;;;;5047496;28;21198;-76
2021/09/15 05:55:09;;;;;;;7.33;6.70;;;21.90;99.90;;;;;;5051420;28;20595;-75
2021/09/15 05:57:35;;;;;;;7.17;6.20;;;21.90;99.90;;;;;;5050753;28;20192;-75
2021/09/15 06:00:02;;;;;;;6.73;6.13;;;22.00;99.90;;;;;;5052598;28;20570;-75
2021/09/15 06:02:28;;;;;;;6.30;5.80;;;22.00;99.90;;;;;;5052130;28;20571;-75
2021/09/15 06:04:58;;;;;;;6.50;5.93;;;22.00;99.90;;;;;;5045095;28;20580;-76
2021/09/15 06:07:29;;;;;;;7.00;5.50;;;22.00;99.90;;;;;;5051492;28;21460;-76
2021/09/15 06:09:55;;;;;;;6.10;5.60;;;22.10;99.90;;;;;;5051462;28;20587;-75
2021/09/15 06:12:21;;;;;;;7.60;6.20;;;22.10;99.90;;;;;;5050797;28;20619;-76
2021/09/15 06:14:47;;;;;;;7.67;7.03;;;22.10;99.90;;;;;;5051343;28;20264;-76
2021/09/15 06:17:13;;;;;;;6.67;6.07;;;22.10;99.90;;;;;;5034057;28;20630;-76
2021/09/15 06:19:39;;;;;;;5.83;5.33;;;22.10;99.90;;;;;;5050926;28;20630;-75
2021/09/15 06:22:34;;;;;;;6.57;6.00;;;22.10;99.90;;;;;;5014751;28;20189;-76
2021/09/15 06:25:23;;;;;;;6.80;6.10;;;22.20;99.90;;;;;;5034513;28;20576;-75
2021/09/15 06:27:51;;;;;;;5.70;5.30;;;22.20;99.90;;;;;;5053795;28;20699;-75
2021/09/15 06:30:17;;;;;;;5.80;5.20;;;22.20;99.90;;;;;;5050644;28;20646;-75
2021/09/15 06:32:43;;;;;;;6.90;5.40;;;22.20;99.90;;;;;;5051914;28;21010;-75
2021/09/15 06:35:11;;;;;;;6.20;5.60;;;22.30;99.90;;;;;;5050739;28;20709;-76
2021/09/15 06:37:38;;;;;;;6.93;6.20;;;22.30;99.90;;;;;;5051437;28;20592;-75
2021/09/15 06:40:04;;;;;;;7.23;5.23;;;22.40;99.90;;;;;;5051607;28;20579;-75
2021/09/15 06:42:30;;;;;;;5.40;4.90;;;22.40;99.90;;;;;;5050340;28;20583;-75
2021/09/15 06:44:56;;;;;;;5.33;4.83;;;22.40;99.90;;;;;;5051881;28;20574;-75
2021/09/15 06:47:22;;;;;;;6.40;5.07;;;22.50;99.90;;;;;;5066499;28;21602;-76
2021/09/15 06:49:48;;;;;;;5.70;5.23;;;22.50;99.90;;;;;;5051556;28;20173;-76
2021/09/15 06:52:15;;;;;;;5.57;5.07;;;22.60;99.90;;;;;;5051083;28;20637;-75
2021/09/15 06:54:40;;;;;;;5.33;4.83;;;22.70;99.90;;;;;;5051475;28;20622;-75
2021/09/15 06:57:06;;;;;;;5.40;4.70;;;22.70;99.90;;;;;;5051084;28;20603;-75
2021/09/15 06:59:32;;;;;;;9.37;5.70;;;22.70;99.90;;;;;;5033349;28;20576;-75
2021/09/15 07:01:58;;;;;;;5.10;4.43;;;22.80;99.90;;;;;;5051200;28;20223;-75
2021/09/15 07:04:23;;;;;;;4.00;3.60;;;22.80;99.90;;;;;;5055553;28;20192;-75
2021/09/15 07:06:49;;;;;;;4.20;3.90;;;22.90;99.90;;;;;;5051143;28;20189;-75
2021/09/15 07:09:15;;;;;;;4.90;4.37;;;23.00;99.90;;;;;;5033410;28;20236;-75
2021/09/15 07:11:40;;;;;;;5.47;5.07;;;23.10;99.90;;;;;;5051207;28;20216;-75
2021/09/15 07:14:06;;;;;;;4.17;3.77;;;23.20;99.90;;;;;;5051256;28;20212;-75
2021/09/15 07:16:33;;;;;;;4.13;3.67;;;23.30;99.90;;;;;;5050970;28;20211;-75
2021/09/15 07:19:00;;;;;;;4.60;4.20;;;23.30;99.90;;;;;;5032753;28;20201;-75
2021/09/15 07:21:26;;;;;;;4.40;4.00;;;23.40;99.90;;;;;;5033811;28;20590;-75
2021/09/15 07:23:52;;;;;;;4.30;3.73;;;23.50;99.90;;;;;;5033518;28;20572;-75
2021/09/15 07:26:18;;;;;;;3.53;3.23;;;23.50;99.90;;;;;;5065587;28;20267;-75
2021/09/15 07:28:43;;;;;;;3.77;3.47;;;23.50;99.90;;;;;;5050469;28;20201;-75
2021/09/15 07:31:09;;;;;;;4.40;4.00;;;23.60;99.90;;;;;;5066822;28;20178;-75
2021/09/15 07:33:35;;;;;;;3.83;3.43;;;23.70;99.90;;;;;;5050856;28;20172;-75
2021/09/15 07:36:03;;;;;;;4.47;3.93;;;23.70;99.90;;;;;;5033458;28;20543;-75
2021/09/15 07:38:29;;;;;;;4.63;3.93;;;23.80;99.90;;;;;;5033012;28;20630;-75
2021/09/15 07:40:55;;;;;;;8.30;4.17;;;23.90;99.90;;;;;;5055450;28;20575;-75
2021/09/15 07:43:21;;;;;;;4.07;3.50;;;24.10;99.90;;;;;;5053408;28;20636;-75
2021/09/15 07:45:46;;;;;;;4.83;4.33;;;24.30;99.90;;;;;;5037410;28;20975;-76
2021/09/15 07:48:12;;;;;;;3.50;3.20;;;24.70;99.90;;;;;;5070185;28;20193;-75
2021/09/15 07:50:38;;;;;;;3.73;3.43;;;24.90;99.90;;;;;;5054750;28;20215;-75
2021/09/15 07:53:03;;;;;;;4.20;3.40;;;25.20;99.90;;;;;;5054487;28;20676;-75
2021/09/15 07:55:30;;;;;;;5.57;5.00;;;25.40;99.90;;;;;;5036984;28;20578;-75
2021/09/15 07:57:56;;;;;;;7.10;3.40;;;25.50;99.90;;;;;;5036609;28;20603;-75
2021/09/15 08:00:22;;;;;;;3.60;3.27;;;25.50;99.90;;;;;;5054765;28;20249;-75
2021/09/15 08:02:48;;;;;;;3.30;3.00;;;25.60;99.90;;;;;;5036617;28;20176;-74
2021/09/15 08:05:15;;;;;;;3.97;3.23;;;25.50;99.90;;;;;;5053271;28;20907;-74
2021/09/15 08:07:41;;;;;;;3.07;2.87;;;25.50;99.90;;;;;;5036026;28;20701;-75
2021/09/15 08:10:07;;;;;;;3.17;2.87;;;25.50;99.90;;;;;;5053121;28;20579;-75
2021/09/15 08:12:33;;;;;;;2.83;2.63;;;25.50;99.90;;;;;;5054159;28;20625;-75
2021/09/15 08:14:59;;;;;;;5.17;2.50;;;25.50;99.90;;;;;;5054608;28;20610;-75
2021/09/15 08:17:25;;;;;;;4.17;2.70;;;25.50;99.90;;;;;;5056472;28;20664;-75
2021/09/15 08:19:51;;;;;;;4.10;2.50;;;25.40;99.90;;;;;;5036917;28;20165;-76
2021/09/15 08:22:17;;;;;;;4.67;2.60;;;25.30;99.90;;;;;;5054864;28;20164;-74
2021/09/15 08:24:43;;;;;;;4.33;2.63;;;25.30;99.90;;;;;;5054269;28;20260;-75
2021/09/15 08:27:08;;;;;;;3.60;2.57;;;25.30;99.90;;;;;;5019974;28;20201;-75
2021/09/15 08:29:35;;;;;;;2.70;2.07;;;25.20;99.90;;;;;;5036593;28;20571;-75
2021/09/15 08:32:01;;;;;;;2.60;2.40;;;25.20;99.90;;;;;;5036554;28;20243;-74
2021/09/15 08:34:26;;;;;;;2.67;2.20;;;25.20;99.90;;;;;;5035780;28;20983;-75
2021/09/15 08:36:52;;;;;;;2.90;2.47;;;25.10;99.90;;;;;;5053733;28;20165;-75
2021/09/15 08:39:18;;;;;;;2.27;2.07;;;25.10;99.90;;;;;;5035160;28;20180;-75
2021/09/15 08:41:46;;;;;;;4.33;2.27;;;25.00;99.90;;;;;;5019767;28;20169;-75
2021/09/15 08:44:12;;;;;;;2.37;1.80;;;25.00;99.90;;;;;;5052060;28;20251;-75
2021/09/15 08:46:38;;;;;;;3.20;1.97;;;24.90;99.90;;;;;;5053777;28;20658;-75
2021/09/15 08:49:05;;;;;;;3.37;2.90;;;25.00;99.90;;;;;;5035418;28;20165;-76
2021/09/15 08:51:33;;;;;;;4.17;2.73;;;24.90;99.90;;;;;;5053185;28;21166;-76
2021/09/15 08:54:00;;;;;;;3.40;2.20;;;24.90;99.90;;;;;;5021597;28;20587;-75
2021/09/15 08:56:29;;;;;;;3.23;2.43;;;24.90;99.90;;;;;;5051574;28;20636;-75
2021/09/15 08:58:55;;;;;;;3.10;2.37;;;24.90;99.90;;;;;;5046252;28;20721;-75
2021/09/15 09:01:24;;;;;;;3.40;1.90;;;24.90;99.90;;;;;;5052779;28;20176;-75
2021/09/15 09:03:55;;;;;;;2.17;1.97;;;24.90;99.90;;;;;;5053248;28;20169;-75
2021/09/15 09:06:23;;;;;;;2.40;1.70;;;24.90;99.90;;;;;;5035327;28;20947;-75
2021/09/15 09:08:57;;;;;;;2.30;1.83;;;25.00;99.90;;;;;;5052872;28;20710;-76
2021/09/15 09:11:26;;;;;;;2.70;1.77;;;25.10;99.90;;;;;;5051708;28;20916;-75
2021/09/15 09:13:58;;;;;;;2.93;2.07;;;25.20;99.90;;;;;;5053230;28;20684;-75
2021/09/15 09:16:40;;;;;;;3.40;1.60;;;25.30;99.90;;;;;;5053570;28;20568;-75
2021/09/15 09:19:08;;;;;;;2.60;1.57;;;25.40;99.90;;;;;;5019646;28;20602;-75
2021/09/15 09:21:37;;;;;;;3.93;1.70;;;25.40;99.90;;;;;;5035244;28;20579;-75
2021/09/15 09:24:06;;;;;;;3.40;2.10;;;25.50;99.90;;;;;;5034729;28;20591;-76
2021/09/15 09:26:55;;;;;;;2.60;2.00;;;25.50;99.90;;;;;;5052052;28;20611;-75
2021/09/15 09:29:26;;;;;;;2.00;1.40;;;25.50;99.90;;;;;;5034671;28;21213;-76
2021/09/15 09:31:57;;;;;;;2.40;1.80;;;25.70;99.90;;;;;;5034174;28;20676;-76
2021/09/15 09:34:24;;;;;;;2.40;1.83;;;25.70;99.90;;;;;;5048419;28;20587;-76
2021/09/15 09:37:10;;;;;;;2.53;1.80;;;25.80;99.90;;;;;;5052581;28;20603;-76
2021/09/15 09:39:37;;;;;;;2.13;1.40;;;25.80;99.90;;;;;;5052945;28;20599;-76
2021/09/15 09:42:03;;;;;;;6.87;1.93;;;25.80;99.90;;;;;;5045175;28;21185;-75
2021/09/15 09:44:29;;;;;;;3.87;2.10;;;25.80;99.90;;;;;;5051104;28;20579;-76
2021/09/15 09:46:55;;;;;;;3.07;1.40;;;25.80;99.90;;;;;;5052346;28;20615;-75
2021/09/15 09:49:22;;;;;;;3.63;1.50;;;25.80;99.90;;;;;;5034009;28;20269;-74
2021/09/15 09:51:47;;;;;;;4.10;2.17;;;25.70;99.90;;;;;;5067958;28;20722;-74
2021/09/15 09:54:20;;;;;;;3.80;2.10;;;25.70;99.90;;;;;;5052603;28;20192;-74
2021/09/15 09:56:54;;;;;;;2.40;1.70;;;25.50;99.90;;;;;;5018134;28;20172;-74
2021/09/15 09:59:21;;;;;;;2.77;1.87;;;25.30;99.90;;;;;;5034457;28;20567;-75
2021/09/15 10:01:49;;;;;;;2.17;1.60;;;25.20;99.90;;;;;;5052182;28;20633;-75
2021/09/15 10:04:16;;;;;;;3.73;1.73;;;25.10;99.90;;;;;;5034783;28;20685;-74
2021/09/15 10:06:44;;;;;;;4.07;2.07;;;24.90;99.90;;;;;;5053439;28;20572;-75
2021/09/15 10:09:10;;;;;;;3.07;1.67;;;24.80;99.90;;;;;;5036804;28;20602;-75
2021/09/15 10:11:38;;;;;;;5.50;2.30;;;24.60;99.90;;;;;;5051801;28;21062;-74
2021/09/15 10:14:07;;;;;;;3.13;1.70;;;24.50;99.90;;;;;;5052345;28;20640;-75
2021/09/15 10:16:41;;;;;;;2.40;1.90;;;24.40;99.90;;;;;;5050758;28;21111;-75
2021/09/15 10:19:07;;;;;;;3.50;1.83;;;24.30;99.90;;;;;;5034174;28;20585;-76
2021/09/15 10:21:35;;;;;;;1.93;1.70;;;24.20;99.90;;;;;;5034079;28;20690;-75
2021/09/15 10:24:03;;;;;;;3.03;1.87;;;24.20;99.90;;;;;;5052002;28;20576;-75
2021/09/15 10:26:35;;;;;;;2.30;2.10;;;24.20;99.90;;;;;;5051824;28;21387;-74
2021/09/15 10:29:32;;;;;;;2.40;1.80;;;24.20;99.90;;;;;;5050152;28;20945;-74
2021/09/15 10:32:04;;;;;;;2.60;1.60;;;24.20;99.90;;;;;;5051708;28;20611;-75
2021/09/15 10:34:39;;;;;;;1.80;1.57;;;24.30;99.90;;;;;;5034019;28;20574;-75
2021/09/15 10:37:30;;;;;;;3.00;1.93;;;24.40;99.90;;;;;;5051394;28;20606;-74
2021/09/15 10:40:08;;;;;;;3.43;1.87;;;24.50;99.90;;;;;;5034186;28;20576;-75
2021/09/15 10:42:46;;;;;;;3.80;1.97;;;24.50;99.90;;;;;;5052115;28;21170;-75
2021/09/15 10:45:15;;;;;;;3.90;1.67;;;24.60;99.90;;;;;;5039187;28;20571;-74
2021/09/15 10:47:47;;;;;;;3.00;1.90;;;24.60;99.90;;;;;;5051088;28;20649;-74
2021/09/15 10:50:33;;;;;;;3.27;1.70;;;24.70;99.90;;;;;;5051120;28;20587;-74
2021/09/15 10:53:07;;;;;;;4.13;2.00;;;24.70;99.90;;;;;;5050053;28;20619;-74
2021/09/15 10:55:53;;;;;;;2.50;2.17;;;24.70;99.90;;;;;;5050996;28;21165;-74
2021/09/15 10:58:18;;;;;;;3.10;1.90;;;24.70;99.90;;;;;;5033234;28;20623;-75
2021/09/15 11:00:48;;;;;;;2.83;1.40;;;24.70;99.90;;;;;;5050844;28;20614;-74
2021/09/15 11:03:34;;;;;;;2.23;1.57;;;24.70;99.90;;;;;;5033740;28;20169;-75
2021/09/15 11:06:06;;;;;;;3.53;1.40;;;24.70;99.90;;;;;;5033101;28;20573;-75
2021/09/15 11:08:36;;;;;;;3.13;1.70;;;24.60;99.90;;;;;;5033431;28;20666;-75
2021/09/15 11:11:21;;;;;;;2.10;1.27;;;24.50;99.90;;;;;;5051432;28;20571;-75
2021/09/15 11:13:58;;;;;;;2.10;1.33;;;24.50;99.90;;;;;;5051416;28;20575;-75
2021/09/15 11:16:31;;;;;;;2.57;1.73;;;24.50;99.90;;;;;;5051054;28;21126;-74
2021/09/15 11:19:00;;;;;;;1.50;1.20;;;24.40;99.90;;;;;;5051041;28;20658;-75
2021/09/15 11:21:31;;;;;;;2.30;1.70;;;24.30;99.90;;;;;;5054912;28;20564;-75
2021/09/15 11:24:09;;;;;;;4.63;2.00;;;24.20;99.90;;;;;;5051657;28;20567;-76
2021/09/15 11:26:42;;;;;;;3.50;1.60;;;24.20;99.90;;;;;;5051317;28;20650;-75
2021/09/15 11:29:08;;;;;;;2.17;1.70;;;24.00;99.90;;;;;;5032901;28;20583;-75
2021/09/15 11:31:36;;;;;;;2.40;1.57;;;23.90;99.90;;;;;;5049820;28;20623;-75
2021/09/15 11:34:08;;;;;;;4.17;1.80;;;23.80;99.90;;;;;;5033156;28;20571;-74
2021/09/15 11:36:34;;;;;;;4.00;1.47;;;23.70;99.90;;;;;;5016677;28;20576;-75
2021/09/15 11:38:59;;;;;;;2.23;1.40;;;23.70;99.90;;;;;;5050547;28;20658;-74
2021/09/15 11:41:26;;;;;;;3.10;1.80;;;23.70;99.90;;;;;;5050766;28;20586;-74
2021/09/15 11:43:52;;;;;;;3.20;1.80;;;23.80;99.90;;;;;;5033456;28;20658;-74
2021/09/15 11:46:19;;;;;;;4.43;1.60;;;23.90;99.90;;;;;;5050965;28;20575;-74
2021/09/15 11:48:45;;;;;;;5.20;3.17;;;23.90;99.90;;;;;;5032777;28;20197;-74
2021/09/15 11:51:19;;;;;;;3.50;2.63;;;24.00;99.90;;;;;;5051158;28;20559;-74
2021/09/15 11:54:09;;;;;;;4.00;2.47;;;24.10;99.90;;;;;;5033174;28;20583;-74
2021/09/15 11:59:31;;;;;;;2.60;2.40;;;24.20;99.90;;;;;;5047779;28;20643;-74
2021/09/15 12:01:57;;;;;;;2.67;2.13;;;24.30;99.90;;;;;;5032997;28;20607;-74
2021/09/15 12:04:25;;;;;;;2.83;1.63;;;24.20;99.90;;;;;;5033243;28;20587;-74
2021/09/15 12:06:51;;;;;;;4.10;2.10;;;24.10;99.90;;;;;;5050319;28;21153;-75
2021/09/15 12:09:18;;;;;;;4.00;1.80;;;24.00;99.90;;;;;;5050719;28;20576;-75
2021/09/15 12:11:49;;;;;;;3.50;2.43;;;23.90;99.90;;;;;;5051276;28;20626;-79
2021/09/15 12:14:16;;;;;;;4.67;2.97;;;23.80;99.90;;;;;;5052134;28;20622;-80
2021/09/15 12:16:43;;;;;;;3.60;2.80;;;23.70;99.90;;;;;;5050577;28;20567;-80
2021/09/15 12:19:22;;;;;;;3.93;3.07;;;23.70;99.90;;;;;;5050457;28;20999;-80
2021/09/15 12:21:51;;;;;;;3.53;3.20;;;23.70;99.90;;;;;;5032955;28;20575;-74
2021/09/15 12:24:19;;;;;;;3.87;3.27;;;23.80;99.90;;;;;;5032964;28;20615;-75
2021/09/15 12:26:45;;;;;;;4.40;3.40;;;23.90;99.90;;;;;;5016415;28;21049;-75
2021/09/15 12:29:15;;;;;;;3.30;2.67;;;24.10;99.90;;;;;;5034692;28;20580;-74
2021/09/15 12:31:51;;;;;;;4.33;3.20;;;24.30;99.90;;;;;;5036453;28;20721;-75
2021/09/15 12:34:39;;;;;;;4.10;3.30;;;24.50;99.90;;;;;;5057171;28;20563;-74
2021/09/15 12:37:14;;;;;;;4.63;3.00;;;24.70;99.90;;;;;;5054047;28;20618;-74
2021/09/15 12:39:53;;;;;;;3.40;2.67;;;24.90;99.90;;;;;;5053995;28;20571;-75
2021/09/15 12:42:34;;;;;;;3.10;2.40;;;25.00;99.90;;;;;;5036417;28;20587;-74
2021/09/15 12:45:04;;;;;;;2.83;2.57;;;25.10;99.90;;;;;;5053948;28;20591;-75
2021/09/15 12:47:40;;;;;;;5.23;2.47;;;25.20;99.90;;;;;;5053797;28;20630;-75
2021/09/15 12:50:21;;;;;;;3.07;2.80;;;25.20;99.90;;;;;;5053849;28;20571;-74
2021/09/15 12:52:49;;;;;;;4.27;3.90;;;25.30;99.90;;;;;;5053717;28;20982;-74
2021/09/15 12:55:20;;;;;;;4.07;3.70;;;25.30;99.90;;;;;;5053724;28;20579;-75
2021/09/15 12:58:00;;;;;;;3.10;2.80;;;25.30;99.90;;;;;;5053688;28;21002;-74
2021/09/15 13:00:33;;;;;;;3.43;3.13;;;25.30;99.90;;;;;;5053816;28;20725;-74
2021/09/15 13:03:04;;;;;;;4.37;3.63;;;25.40;99.90;;;;;;5053656;28;20674;-75
2021/09/15 13:05:44;;;;;;;3.57;3.27;;;25.50;99.90;;;;;;5053659;28;20733;-75
2021/09/15 13:08:50;;;;;;;3.80;3.50;;;25.60;99.90;;;;;;5053458;28;20938;-74
2021/09/15 13:11:16;;;;;;;5.40;4.90;;;25.70;99.90;;;;;;5053547;28;20630;-74
2021/09/15 13:13:42;;;;;;;4.57;4.17;;;25.90;99.90;;;;;;5053161;28;20619;-75
2021/09/15 13:16:09;;;;;;;4.60;4.20;;;26.00;99.90;;;;;;5053515;28;21118;-74